createdAt,value
2022-12-04T00:01:36.634Z,32.30
2022-12-04T00:06:40.358Z,30.00
2022-12-04T00:11:43.665Z,29.80
2022-12-04T00:16:47.109Z,20.40
2022-12-04T00:21:51.620Z,33.00
2022-12-04T00:26:55.340Z,35.30
2022-12-04T00:31:58.745Z,30.10
2022-12-04T00:37:02.271Z,32.90
2022-12-04T00:42:05.785Z,29.70
2022-12-04T00:47:09.095Z,28.10
2022-12-04T00:52:12.507Z,28.70
2022-12-04T00:57:15.921Z,30.80
2022-12-04T01:02:19.435Z,32.30
2022-12-04T01:07:22.755Z,31.50
2022-12-04T01:12:26.262Z,30.00
2022-12-04T01:17:29.880Z,20.10
2022-12-04T01:22:33.397Z,29.00
2022-12-04T01:27:36.707Z,30.50
2022-12-04T01:32:40.228Z,28.10
2022-12-04T01:37:43.737Z,27.30
2022-12-04T01:42:52.681Z,21.80
2022-12-04T01:48:19.747Z,28.50
2022-12-04T01:53:23.288Z,28.00
2022-12-04T01:58:32.515Z,26.90
2022-12-04T02:03:36.343Z,26.90
2022-12-04T02:08:39.956Z,28.30
2022-12-04T02:14:04.769Z,28.90
2022-12-04T02:19:10.742Z,28.30
2022-12-04T02:24:50.134Z,25.90
2022-12-04T02:30:04.468Z,23.20
2022-12-04T02:35:10.956Z,22.80
2022-12-04T02:40:21.841Z,26.20
2022-12-04T02:45:31.679Z,26.80
2022-12-04T02:50:39.709Z,25.40
2022-12-04T02:55:48.771Z,25.70
2022-12-04T03:00:54.735Z,23.80
2022-12-04T03:06:07.389Z,27.30
2022-12-04T03:11:11.297Z,25.60
2022-12-04T03:16:23.691Z,21.20
2022-12-04T03:21:33.590Z,23.80
2022-12-04T03:26:45.911Z,23.40
2022-12-04T03:32:06.730Z,23.90
2022-12-04T03:37:20.589Z,22.40
2022-12-04T03:42:28.413Z,25.90
2022-12-04T03:47:43.493Z,24.20
2022-12-04T03:53:03.905Z,22.80
2022-12-04T03:58:14.075Z,20.70
2022-12-04T04:03:23.221Z,22.00
2022-12-04T04:08:34.260Z,22.20
2022-12-04T04:14:03.842Z,22.30
2022-12-04T04:19:31.232Z,20.70
2022-12-04T04:24:45.691Z,20.50
2022-12-04T04:29:52.633Z,21.10
2022-12-04T04:35:05.420Z,22.80
2022-12-04T04:40:22.143Z,22.10
2022-12-04T04:45:42.862Z,23.00
2022-12-04T04:50:46.786Z,23.50
2022-12-04T04:55:50.456Z,23.10
2022-12-04T05:00:59.556Z,23.20
2022-12-04T05:06:03.078Z,19.60
2022-12-04T05:11:06.890Z,23.20
2022-12-04T05:16:15.404Z,23.20
2022-12-04T05:21:18.734Z,22.90
2022-12-04T05:26:22.048Z,22.40
2022-12-04T05:31:25.594Z,24.40
2022-12-04T05:36:29.078Z,21.80
2022-12-04T05:41:32.488Z,19.00
2022-12-04T05:46:35.954Z,24.10
2022-12-04T05:51:39.521Z,17.20
2022-12-04T05:56:43.138Z,18.00
2022-12-04T06:01:46.539Z,13.90
2022-12-04T06:06:49.965Z,22.10
2022-12-04T06:11:57.997Z,21.50
2022-12-04T06:17:01.500Z,21.00
2022-12-04T06:22:04.916Z,20.30
2022-12-04T06:32:31.812Z,19.70
2022-12-04T06:37:35.224Z,18.00
2022-12-04T06:42:38.535Z,18.90
2022-12-04T06:47:41.952Z,18.90
2022-12-04T06:52:45.400Z,18.60
2022-12-04T06:57:48.881Z,15.90
2022-12-04T07:02:52.371Z,18.70
2022-12-04T07:07:55.880Z,18.40
2022-12-04T07:12:59.425Z,14.50
2022-12-04T07:18:03.043Z,12.70
2022-12-04T07:23:07.489Z,19.00
2022-12-04T07:28:10.999Z,17.50
2022-12-04T07:33:14.516Z,16.80
2022-12-04T07:38:17.935Z,23.70
2022-12-04T07:43:21.335Z,15.40
2022-12-04T07:48:30.185Z,18.30
2022-12-04T07:53:36.558Z,18.90
2022-12-04T07:58:40.485Z,19.50
2022-12-04T08:03:48.405Z,13.90
2022-12-04T08:08:53.467Z,19.00
2022-12-04T08:14:09.023Z,17.80
2022-12-04T08:19:12.599Z,18.70
2022-12-04T08:24:17.621Z,20.80
2022-12-04T08:29:20.931Z,17.30
2022-12-04T08:34:25.371Z,18.80
2022-12-04T08:44:32.092Z,17.70
2022-12-04T08:49:35.916Z,17.90
2022-12-04T08:54:39.638Z,13.00
2022-12-04T08:59:43.560Z,15.50
2022-12-04T09:04:47.359Z,17.90
2022-12-04T09:09:52.221Z,16.80
2022-12-04T09:14:57.106Z,16.40
2022-12-04T09:20:02.916Z,16.70
2022-12-04T09:25:08.559Z,17.20
2022-12-04T09:30:14.451Z,21.00
2022-12-04T09:35:21.068Z,21.40
2022-12-04T09:40:58.111Z,18.90
2022-12-04T09:46:13.258Z,19.40
2022-12-04T09:51:33.631Z,18.90
2022-12-04T09:56:39.248Z,16.70
2022-12-04T10:01:50.996Z,19.50
2022-12-04T10:07:39.548Z,18.70
2022-12-04T10:12:55.676Z,18.40
2022-12-04T10:18:31.605Z,15.80
2022-12-04T10:23:58.703Z,17.60
2022-12-04T10:29:10.614Z,16.60
2022-12-04T10:34:27.191Z,17.40
2022-12-04T10:39:42.093Z,16.90
2022-12-04T10:44:45.916Z,17.30
2022-12-04T10:49:52.296Z,13.90
2022-12-04T10:55:02.783Z,18.20
2022-12-04T11:00:30.016Z,17.70
2022-12-04T11:05:37.760Z,17.20
2022-12-04T11:10:44.864Z,17.90
2022-12-04T11:15:55.137Z,17.80
2022-12-04T11:21:01.519Z,18.30
2022-12-04T11:26:06.420Z,18.40
2022-12-04T11:31:16.727Z,17.70
2022-12-04T11:36:24.769Z,17.50
2022-12-04T11:41:31.479Z,15.40
2022-12-04T11:46:37.080Z,17.10
2022-12-04T11:52:02.042Z,16.50
2022-12-04T11:57:39.135Z,18.20
2022-12-04T12:03:13.911Z,16.80
2022-12-04T12:13:49.486Z,17.20
2022-12-04T12:19:05.188Z,16.80
2022-12-04T12:24:11.466Z,16.10
2022-12-04T12:29:21.023Z,16.80
2022-12-04T12:34:37.342Z,14.60
2022-12-04T12:39:48.124Z,15.00
2022-12-04T12:45:01.983Z,14.30
2022-12-04T12:50:16.665Z,16.20
2022-12-04T13:00:47.207Z,14.90
2022-12-04T13:05:55.066Z,15.80
2022-12-04T13:10:58.368Z,15.80
2022-12-04T13:16:14.016Z,15.10
2022-12-04T13:21:45.749Z,13.70
2022-12-04T13:27:12.814Z,15.10
2022-12-04T13:32:45.002Z,15.00
2022-12-04T13:38:11.873Z,15.30
2022-12-04T13:43:34.238Z,15.30
2022-12-04T13:48:41.220Z,17.00
2022-12-04T13:53:44.838Z,16.00
2022-12-04T13:59:04.127Z,14.30
2022-12-04T14:04:08.560Z,16.40
2022-12-04T14:09:32.046Z,15.60
2022-12-04T14:14:43.140Z,13.70
2022-12-04T14:19:53.439Z,17.20
2022-12-04T14:25:21.709Z,17.20
2022-12-04T14:30:38.620Z,15.90
2022-12-04T14:36:05.502Z,14.90
2022-12-04T14:41:08.915Z,13.70
2022-12-04T14:46:25.642Z,16.10
2022-12-04T14:51:43.694Z,14.30
2022-12-04T14:57:05.647Z,15.40
2022-12-04T15:02:13.460Z,15.60
2022-12-04T15:07:22.229Z,14.00
2022-12-04T15:12:35.662Z,16.00
2022-12-04T15:17:39.058Z,13.10
2022-12-04T15:22:43.062Z,14.20
2022-12-04T15:27:49.263Z,10.40
2022-12-04T15:32:53.906Z,14.30
2022-12-04T15:37:59.516Z,14.30
2022-12-04T15:43:17.328Z,14.10
2022-12-04T15:48:28.233Z,12.00
2022-12-04T15:53:40.362Z,13.20
2022-12-04T15:58:53.059Z,12.00
2022-12-04T16:03:56.734Z,11.00
2022-12-04T16:09:13.405Z,8.10
2022-12-04T16:14:18.720Z,9.40
2022-12-04T16:19:30.370Z,11.60
2022-12-04T16:24:33.883Z,11.20
2022-12-04T16:29:37.192Z,10.50
2022-12-04T16:34:40.912Z,9.90
2022-12-04T16:39:44.732Z,12.00
2022-12-04T16:44:48.458Z,9.40
2022-12-04T16:49:52.384Z,10.60
2022-12-04T16:54:58.432Z,10.20
2022-12-04T17:00:04.435Z,10.10
2022-12-04T17:05:09.029Z,7.30
2022-12-04T17:10:15.006Z,9.80
2022-12-04T17:15:21.260Z,9.50
2022-12-04T17:20:24.841Z,11.10
2022-12-04T17:25:28.150Z,11.40
2022-12-04T17:30:35.997Z,11.70
2022-12-04T17:35:44.398Z,10.60
2022-12-04T17:40:58.937Z,10.30
2022-12-04T17:51:17.679Z,9.90
2022-12-04T17:56:23.550Z,11.30
2022-12-04T18:01:29.249Z,10.00
2022-12-04T18:06:35.267Z,12.00
2022-12-04T18:11:40.749Z,12.00
2022-12-04T18:16:47.355Z,10.70
2022-12-04T18:21:51.880Z,10.70
2022-12-04T18:26:55.394Z,10.00
2022-12-04T18:31:58.833Z,11.20
2022-12-04T18:37:02.353Z,9.80
2022-12-04T18:42:06.145Z,9.00
2022-12-04T18:47:09.457Z,8.60
2022-12-04T18:52:12.869Z,9.10
2022-12-04T18:57:16.281Z,10.40
2022-12-04T19:02:19.764Z,9.70
2022-12-04T19:07:23.420Z,10.00
2022-12-04T19:12:26.938Z,10.10
2022-12-04T19:17:30.348Z,11.30
2022-12-04T19:22:33.656Z,11.70
2022-12-04T19:27:37.171Z,10.70
2022-12-04T19:32:40.588Z,10.90
2022-12-04T19:37:48.164Z,9.40
2022-12-04T19:42:58.204Z,10.10
2022-12-04T19:48:06.292Z,11.10
2022-12-04T19:53:11.951Z,10.40
2022-12-04T19:58:15.264Z,12.00
2022-12-04T20:03:18.685Z,11.10
2022-12-04T20:08:22.298Z,13.00
2022-12-04T20:13:25.809Z,11.30
2022-12-04T20:18:29.528Z,12.60
2022-12-04T20:23:32.840Z,12.60
2022-12-04T21:25:42.172Z,7.60
2022-12-04T21:30:45.461Z,7.80
2022-12-04T21:35:48.893Z,7.70
2022-12-04T21:40:52.305Z,7.10
2022-12-04T21:46:04.487Z,7.10
2022-12-04T21:51:26.883Z,8.30
2022-12-04T21:56:35.826Z,7.70
2022-12-04T22:01:39.508Z,5.50
2022-12-04T22:06:43.474Z,6.00
2022-12-04T22:11:46.988Z,7.30
2022-12-04T22:16:51.930Z,7.50
2022-12-04T22:21:55.452Z,7.80
2022-12-04T22:26:58.865Z,6.20
2022-12-04T22:32:02.278Z,5.20
2022-12-04T22:37:05.692Z,7.90
2022-12-04T22:42:09.107Z,8.80
2022-12-04T22:47:12.570Z,8.40
2022-12-04T22:52:16.135Z,7.30
2022-12-04T22:57:19.445Z,7.80
2022-12-04T23:02:22.861Z,8.40
2022-12-04T23:07:26.272Z,8.20
2022-12-04T23:12:30.094Z,10.40
2022-12-04T23:17:33.510Z,10.00
2022-12-04T23:22:37.026Z,10.90
2022-12-04T23:27:40.439Z,10.20
2022-12-04T23:32:43.850Z,10.30
2022-12-04T23:37:47.263Z,10.20
2022-12-04T23:42:50.586Z,8.80
2022-12-04T23:47:56.036Z,10.00
2022-12-04T23:52:59.348Z,10.00
2022-12-04T23:58:02.963Z,10.30
